Time;durP1;ratioP1;P1;durP2;ratioP2;P2;SDS_P1;SDS_P2;PMS_P1;PMS_P2;Temp;Humidity;BMP_temperature;BMP_pressure;BME280_temperature;BME280_humidity;BME280_pressure;Samples;Min_cycle;Max_cycle;Signal;HPM_P1;HPM_P2
2022/08/07 00:01:06;;;;;;;14.10;5.13;;;;;;;;;;5125599;27;20020;-75
2022/08/07 00:03:32;;;;;;;17.55;5.30;;;;;;;;;;5127674;27;20027;-75
2022/08/07 00:05:58;;;;;;;8.55;5.95;;;;;;;;;;5126115;27;20025;-76
2022/08/07 00:08:24;;;;;;;10.07;5.03;;;;;;;;;;5122794;27;20019;-74
2022/08/07 00:10:50;;;;;;;9.80;4.93;;;;;;;;;;5090634;28;20500;-75
2022/08/07 00:13:17;;;;;;;11.25;4.47;;;;;;;;;;5093371;28;20483;-75
2022/08/07 00:15:44;;;;;;;19.55;5.00;;;;;;;;;;5126698;27;20028;-75
2022/08/07 00:18:10;;;;;;;11.05;5.25;;;;;;;;;;5093529;28;20440;-74
2022/08/07 00:20:37;;;;;;;11.07;4.65;;;;;;;;;;5093541;28;20048;-75
2022/08/07 00:23:05;;;;;;;13.75;4.80;;;;;;;;;;5093841;28;20021;-75
2022/08/07 00:25:32;;;;;;;8.65;4.30;;;;;;;;;;5093762;28;20744;-76
2022/08/07 00:27:58;;;;;;;9.90;4.82;;;;;;;;;;5093541;28;20024;-75
2022/08/07 00:30:24;;;;;;;7.07;4.18;;;;;;;;;;5126152;27;20028;-75
2022/08/07 00:32:50;;;;;;;11.82;4.85;;;;;;;;;;5093651;28;20063;-75
2022/08/07 00:35:20;;;;;;;5.22;3.88;;;;;;;;;;5093151;28;20103;-75
2022/08/07 00:37:46;;;;;;;10.38;4.50;;;;;;;;;;5125578;27;20032;-75
2022/08/07 00:40:13;;;;;;;15.85;7.07;;;;;;;;;;5092995;28;20379;-76
2022/08/07 00:42:40;;;;;;;25.30;13.30;;;;;;;;;;5077198;28;20024;-75
2022/08/07 00:45:07;;;;;;;11.95;8.35;;;;;;;;;;5080972;28;20115;-76
2022/08/07 00:47:33;;;;;;;16.77;7.63;;;;;;;;;;5092943;28;20051;-75
2022/08/07 00:49:59;;;;;;;8.52;3.90;;;;;;;;;;5092880;28;20027;-75
2022/08/07 00:52:25;;;;;;;12.65;4.70;;;;;;;;;;5093311;28;20082;-75
2022/08/07 00:54:51;;;;;;;9.20;3.78;;;;;;;;;;5125889;27;20020;-75
2022/08/07 00:57:17;;;;;;;8.65;5.07;;;;;;;;;;5125671;27;20020;-75
2022/08/07 00:59:44;;;;;;;17.67;8.32;;;;;;;;;;5092559;28;20364;-75
2022/08/07 01:02:10;;;;;;;14.05;6.13;;;;;;;;;;5092702;28;20017;-75
2022/08/07 01:04:37;;;;;;;11.63;6.38;;;;;;;;;;5092980;28;20020;-75
2022/08/07 01:07:03;;;;;;;9.32;4.68;;;;;;;;;;5092572;28;20023;-75
2022/08/07 01:09:29;;;;;;;11.65;6.40;;;;;;;;;;5092847;28;20098;-75
2022/08/07 01:11:55;;;;;;;16.10;7.97;;;;;;;;;;5092010;28;20070;-75
2022/08/07 01:14:22;;;;;;;15.45;8.07;;;;;;;;;;5092468;28;20519;-75
2022/08/07 01:16:49;;;;;;;15.07;9.38;;;;;;;;;;5091289;28;20487;-76
2022/08/07 01:19:16;;;;;;;12.45;5.55;;;;;;;;;;5092982;28;20027;-75
2022/08/07 01:21:42;;;;;;;11.27;3.80;;;;;;;;;;5091027;28;20047;-75
2022/08/07 01:24:08;;;;;;;8.90;4.50;;;;;;;;;;5077901;28;20020;-75
2022/08/07 01:26:35;;;;;;;9.93;4.65;;;;;;;;;;5092271;28;20092;-75
2022/08/07 01:29:01;;;;;;;4.95;3.63;;;;;;;;;;5087449;28;20052;-75
2022/08/07 01:31:30;;;;;;;7.07;3.65;;;;;;;;;;5074166;28;20059;-75
2022/08/07 01:33:57;;;;;;;18.90;4.57;;;;;;;;;;5084209;28;20483;-75
2022/08/07 01:36:23;;;;;;;12.32;4.00;;;;;;;;;;5118998;27;20475;-75
2022/08/07 01:38:49;;;;;;;6.22;3.08;;;;;;;;;;5078025;28;20024;-75
2022/08/07 01:41:16;;;;;;;11.15;4.03;;;;;;;;;;5090711;28;20089;-75
2022/08/07 01:43:42;;;;;;;9.00;4.00;;;;;;;;;;5090920;28;20073;-74
2022/08/07 01:46:08;;;;;;;11.48;4.65;;;;;;;;;;5091541;28;20395;-75
2022/08/07 01:48:36;;;;;;;10.88;4.07;;;;;;;;;;5124383;27;20024;-75
2022/08/07 01:51:03;;;;;;;10.88;4.05;;;;;;;;;;5124224;27;20379;-75
2022/08/07 01:53:31;;;;;;;23.83;4.13;;;;;;;;;;5091710;28;20047;-75
2022/08/07 01:56:00;;;;;;;7.88;3.90;;;;;;;;;;5091975;28;20028;-75
2022/08/07 01:58:28;;;;;;;8.85;4.25;;;;;;;;;;5092194;28;20012;-75
2022/08/07 02:00:57;;;;;;;15.05;4.53;;;;;;;;;;5092026;28;20458;-75
2022/08/07 02:03:24;;;;;;;9.30;4.40;;;;;;;;;;5091731;28;20024;-75
2022/08/07 02:06:02;;;;;;;9.27;3.97;;;;;;;;;;5091736;28;20024;-75
2022/08/07 02:08:29;;;;;;;5.65;3.65;;;;;;;;;;5090359;28;20024;-75
2022/08/07 02:10:58;;;;;;;15.05;4.68;;;;;;;;;;5090412;28;20431;-75
2022/08/07 02:13:25;;;;;;;9.52;4.10;;;;;;;;;;5091594;28;20031;-75
2022/08/07 02:15:51;;;;;;;7.00;3.40;;;;;;;;;;5091668;28;20023;-75
2022/08/07 02:18:18;;;;;;;9.60;3.92;;;;;;;;;;5091653;28;20439;-75
2022/08/07 02:20:46;;;;;;;10.40;3.83;;;;;;;;;;5123786;27;20090;-75
2022/08/07 02:23:13;;;;;;;12.05;4.00;;;;;;;;;;5090280;28;20070;-75
2022/08/07 02:25:40;;;;;;;9.43;3.85;;;;;;;;;;5090124;28;20020;-74
2022/08/07 02:28:07;;;;;;;8.57;3.40;;;;;;;;;;5091322;28;20028;-75
2022/08/07 02:30:33;;;;;;;6.18;3.60;;;;;;;;;;5124259;27;20028;-75
2022/08/07 02:33:00;;;;;;;8.38;4.07;;;;;;;;;;5090221;28;20050;-75
2022/08/07 02:35:27;;;;;;;10.23;3.85;;;;;;;;;;5109758;28;20017;-75
2022/08/07 02:37:55;;;;;;;9.57;4.00;;;;;;;;;;5124318;28;20039;-75
2022/08/07 02:40:21;;;;;;;22.52;4.20;;;;;;;;;;5091145;28;20024;-75
2022/08/07 02:42:48;;;;;;;8.73;3.42;;;;;;;;;;5088569;28;20020;-75
2022/08/07 02:45:16;;;;;;;5.43;3.75;;;;;;;;;;5112959;27;20471;-75
2022/08/07 02:47:42;;;;;;;9.68;3.88;;;;;;;;;;5089952;28;20161;-75
2022/08/07 02:50:08;;;;;;;7.07;3.35;;;;;;;;;;5123931;28;20013;-74
2022/08/07 02:52:40;;;;;;;7.40;3.70;;;;;;;;;;5091418;28;20479;-75
2022/08/07 02:55:19;;;;;;;13.63;4.05;;;;;;;;;;5090941;28;20016;-75
2022/08/07 02:57:46;;;;;;;8.65;3.67;;;;;;;;;;5091354;28;20039;-74
2022/08/07 03:00:13;;;;;;;5.60;3.60;;;;;;;;;;5091262;28;20426;-75
2022/08/07 03:02:40;;;;;;;11.13;4.75;;;;;;;;;;5095051;28;20020;-76
2022/08/07 03:05:07;;;;;;;16.15;8.85;;;;;;;;;;5127786;27;22103;-75
2022/08/07 03:07:34;;;;;;;17.23;8.63;;;;;;;;;;5094992;28;20016;-75
2022/08/07 03:10:00;;;;;;;8.55;6.80;;;;;;;;;;5094859;28;20024;-75
2022/08/07 03:12:28;;;;;;;9.98;3.70;;;;;;;;;;5094962;28;20483;-75
2022/08/07 03:14:55;;;;;;;12.48;4.50;;;;;;;;;;5080015;28;20024;-75
2022/08/07 03:17:21;;;;;;;7.40;4.05;;;;;;;;;;5094360;28;20022;-75
2022/08/07 03:19:47;;;;;;;9.18;4.40;;;;;;;;;;5094918;28;20618;-75
2022/08/07 03:22:14;;;;;;;14.40;4.25;;;;;;;;;;5095026;28;20017;-75
2022/08/07 03:24:40;;;;;;;5.68;4.05;;;;;;;;;;5127693;27;20051;-75
2022/08/07 03:27:07;;;;;;;6.18;4.40;;;;;;;;;;5094840;28;20027;-75
2022/08/07 03:29:54;;;;;;;6.20;4.65;;;;;;;;;;5127285;27;20066;-75
2022/08/07 03:32:25;;;;;;;7.28;3.58;;;;;;;;;;5092920;28;20028;-76
2022/08/07 03:34:52;;;;;;;7.38;4.00;;;;;;;;;;5094341;28;20028;-76
2022/08/07 03:37:20;;;;;;;7.60;3.90;;;;;;;;;;5094433;28;20110;-76
2022/08/07 03:39:46;;;;;;;11.80;4.90;;;;;;;;;;5125034;27;20019;-76
2022/08/07 03:42:13;;;;;;;11.32;4.30;;;;;;;;;;5127300;27;20383;-76
2022/08/07 03:44:40;;;;;;;11.20;5.53;;;;;;;;;;5094045;28;20091;-75
2022/08/07 03:47:06;;;;;;;8.48;4.40;;;;;;;;;;5094403;28;20027;-75
2022/08/07 03:49:33;;;;;;;8.13;5.63;;;;;;;;;;5093649;28;20020;-75
2022/08/07 03:51:59;;;;;;;10.18;5.32;;;;;;;;;;5081060;28;20020;-77
2022/08/07 03:54:26;;;;;;;10.93;5.05;;;;;;;;;;5094019;28;20449;-75
2022/08/07 03:56:53;;;;;;;10.63;4.55;;;;;;;;;;5126866;27;20352;-75
2022/08/07 03:59:19;;;;;;;6.35;4.70;;;;;;;;;;5094177;28;20039;-75
2022/08/07 04:01:46;;;;;;;13.48;4.82;;;;;;;;;;5093929;28;20077;-75
2022/08/07 04:04:12;;;;;;;8.55;5.55;;;;;;;;;;5126991;27;20023;-75
2022/08/07 04:06:43;;;;;;;11.48;5.60;;;;;;;;;;5093668;28;20074;-76
2022/08/07 04:09:09;;;;;;;9.57;5.43;;;;;;;;;;5093692;28;20040;-75
2022/08/07 04:11:36;;;;;;;9.35;4.88;;;;;;;;;;5092900;28;20437;-76
2022/08/07 04:14:02;;;;;;;10.57;4.80;;;;;;;;;;5093192;28;20028;-76
2022/08/07 04:16:29;;;;;;;9.10;5.15;;;;;;;;;;5126676;27;20106;-75
2022/08/07 04:18:55;;;;;;;7.97;5.30;;;;;;;;;;5093528;28;20019;-75
2022/08/07 04:21:21;;;;;;;10.57;4.40;;;;;;;;;;5093925;28;20048;-75
2022/08/07 04:23:47;;;;;;;10.93;4.65;;;;;;;;;;5093359;28;20016;-75
2022/08/07 04:26:14;;;;;;;12.02;5.05;;;;;;;;;;5093613;28;20095;-75
2022/08/07 04:28:40;;;;;;;9.93;4.30;;;;;;;;;;5089780;28;20044;-75
2022/08/07 04:31:06;;;;;;;5.80;4.30;;;;;;;;;;5093343;28;20021;-76
2022/08/07 04:33:33;;;;;;;5.68;4.05;;;;;;;;;;5126210;27;20036;-77
2022/08/07 04:35:59;;;;;;;11.68;7.60;;;;;;;;;;5079091;28;20027;-76
2022/08/07 04:38:26;;;;;;;13.05;5.50;;;;;;;;;;5126469;27;20020;-75
2022/08/07 04:40:52;;;;;;;8.52;4.43;;;;;;;;;;5092835;28;20150;-76
2022/08/07 04:43:19;;;;;;;7.18;4.10;;;;;;;;;;5092061;28;20462;-76
2022/08/07 04:46:01;;;;;;;7.53;3.88;;;;;;;;;;5093235;28;20102;-75
2022/08/07 04:48:45;;;;;;;7.28;4.03;;;;;;;;;;5092405;28;20031;-77
2022/08/07 04:51:11;;;;;;;10.82;4.32;;;;;;;;;;5093057;28;20020;-76
2022/08/07 04:53:52;;;;;;;4.70;3.45;;;;;;;;;;5125986;27;20387;-76
2022/08/07 04:56:25;;;;;;;6.43;4.07;;;;;;;;;;5092774;28;20099;-77
2022/08/07 04:58:52;;;;;;;;;;;;;;;;;;5126145;27;20020;-75
2022/08/07 05:01:31;;;;;;;8.68;4.72;;;;;;;;;;5098325;28;19904;-75
2022/08/07 05:04:10;;;;;;;11.80;4.32;;;;;;;;;;5112551;27;20028;-76
2022/08/07 05:06:40;;;;;;;7.40;4.30;;;;;;;;;;5091729;28;20020;-76
2022/08/07 05:09:14;;;;;;;11.80;4.55;;;;;;;;;;5080266;28;20069;-76
2022/08/07 05:11:45;;;;;;;8.38;4.20;;;;;;;;;;5092878;28;20142;-76
2022/08/07 05:14:13;;;;;;;9.00;4.15;;;;;;;;;;5125567;27;20368;-75
2022/08/07 05:16:41;;;;;;;5.53;4.22;;;;;;;;;;5092519;28;20077;-75
2022/08/07 05:19:11;;;;;;;7.93;3.58;;;;;;;;;;5078846;28;20101;-75
2022/08/07 05:21:42;;;;;;;7.78;4.25;;;;;;;;;;5091188;28;20048;-76
2022/08/07 05:24:10;;;;;;;8.73;4.50;;;;;;;;;;5125034;27;20012;-75
2022/08/07 05:26:37;;;;;;;9.15;3.58;;;;;;;;;;5092289;28;20044;-75
2022/08/07 05:29:04;;;;;;;7.95;5.97;;;;;;;;;;5092410;28;20016;-76
2022/08/07 05:31:34;;;;;;;8.95;4.22;;;;;;;;;;5092666;28;20090;-75
2022/08/07 05:34:01;;;;;;;7.70;3.72;;;;;;;;;;5092112;28;20405;-75
2022/08/07 05:36:28;;;;;;;7.95;4.72;;;;;;;;;;5092296;28;20016;-76
2022/08/07 05:38:55;;;;;;;9.63;4.30;;;;;;;;;;5092040;28;20024;-75
2022/08/07 05:41:21;;;;;;;6.45;4.25;;;;;;;;;;5119303;27;20024;-74
2022/08/07 05:43:48;;;;;;;11.68;4.15;;;;;;;;;;5116055;27;20024;-76
2022/08/07 05:46:16;;;;;;;6.03;4.22;;;;;;;;;;5077557;28;20529;-75
2022/08/07 05:48:43;;;;;;;5.68;3.83;;;;;;;;;;5092437;28;20095;-76
2022/08/07 05:51:09;;;;;;;6.22;3.85;;;;;;;;;;5084787;28;20025;-75
2022/08/07 05:53:35;;;;;;;7.22;5.32;;;;;;;;;;5090340;28;20554;-75
2022/08/07 05:56:03;;;;;;;9.07;4.55;;;;;;;;;;5117650;27;20039;-75
2022/08/07 05:58:29;;;;;;;9.05;4.38;;;;;;;;;;5091491;28;20020;-75
2022/08/07 06:00:56;;;;;;;13.18;4.85;;;;;;;;;;5092600;28;20023;-76
2022/08/07 06:03:23;;;;;;;7.18;4.07;;;;;;;;;;5092238;28;20390;-76
2022/08/07 06:05:49;;;;;;;4.93;4.30;;;;;;;;;;5092841;28;20047;-77
2022/08/07 06:08:16;;;;;;;10.57;4.38;;;;;;;;;;5125056;27;20118;-75
2022/08/07 06:10:43;;;;;;;12.00;5.05;;;;;;;;;;5076978;28;20020;-76
2022/08/07 06:13:09;;;;;;;7.93;5.07;;;;;;;;;;5092736;28;20039;-76
2022/08/07 06:15:36;;;;;;;12.07;5.60;;;;;;;;;;5124687;27;20024;-75
2022/08/07 06:18:02;;;;;;;15.20;5.70;;;;;;;;;;5091326;28;20105;-76
2022/08/07 06:20:30;;;;;;;6.32;4.93;;;;;;;;;;5091423;28;20054;-76
2022/08/07 06:22:56;;;;;;;8.63;5.28;;;;;;;;;;5087459;28;20104;-76
2022/08/07 06:25:23;;;;;;;8.32;4.63;;;;;;;;;;5114233;27;20024;-76
2022/08/07 06:27:49;;;;;;;10.95;5.40;;;;;;;;;;5123915;27;20475;-75
2022/08/07 06:30:15;;;;;;;6.55;4.95;;;;;;;;;;5091301;28;20040;-76
2022/08/07 06:32:41;;;;;;;11.00;5.40;;;;;;;;;;5091430;28;20043;-75
2022/08/07 06:35:07;;;;;;;9.48;5.28;;;;;;;;;;5091246;28;20093;-76
2022/08/07 06:37:33;;;;;;;7.95;4.82;;;;;;;;;;5091385;28;20107;-76
2022/08/07 06:39:59;;;;;;;7.75;4.55;;;;;;;;;;5124289;28;20012;-75
2022/08/07 06:42:29;;;;;;;5.78;4.80;;;;;;;;;;5091702;28;20031;-75
2022/08/07 06:44:56;;;;;;;6.30;4.68;;;;;;;;;;5069975;28;20475;-76
2022/08/07 06:47:22;;;;;;;11.18;5.45;;;;;;;;;;5083598;28;20364;-75
2022/08/07 06:49:48;;;;;;;9.70;5.90;;;;;;;;;;5091076;28;20031;-76
2022/08/07 06:52:15;;;;;;;9.15;5.60;;;;;;;;;;5091084;28;20075;-77
2022/08/07 06:54:41;;;;;;;5.82;4.65;;;;;;;;;;5075509;28;20490;-76
2022/08/07 06:57:08;;;;;;;7.13;5.38;;;;;;;;;;5084321;28;20017;-76
2022/08/07 06:59:39;;;;;;;9.00;5.55;;;;;;;;;;5117135;28;20017;-76
2022/08/07 07:02:07;;;;;;;7.93;5.50;;;;;;;;;;5076925;28;20020;-77
2022/08/07 07:04:34;;;;;;;6.78;5.25;;;;;;;;;;5078470;28;20020;-74
2022/08/07 07:07:01;;;;;;;10.60;5.88;;;;;;;;;;5089138;28;20024;-76
2022/08/07 07:09:29;;;;;;;9.70;5.35;;;;;;;;;;5090980;28;20095;-76
2022/08/07 07:12:01;;;;;;;6.07;5.20;;;;;;;;;;5090861;28;20024;-76
2022/08/07 07:14:28;;;;;;;8.57;6.22;;;;;;;;;;5115519;28;20027;-77
2022/08/07 07:16:57;;;;;;;7.80;5.50;;;;;;;;;;5087985;28;20020;-76
2022/08/07 07:19:30;;;;;;;10.02;6.15;;;;;;;;;;5092123;28;20017;-76
2022/08/07 07:21:56;;;;;;;7.55;5.45;;;;;;;;;;5092404;28;20048;-77
2022/08/07 07:24:22;;;;;;;8.00;4.88;;;;;;;;;;5092092;28;20021;-77
2022/08/07 07:26:50;;;;;;;7.75;5.03;;;;;;;;;;5090770;28;20043;-75
2022/08/07 07:29:17;;;;;;;10.60;6.10;;;;;;;;;;5076528;28;20028;-78
2022/08/07 07:31:44;;;;;;;7.07;5.97;;;;;;;;;;5090687;28;20398;-76
2022/08/07 07:34:11;;;;;;;11.18;6.05;;;;;;;;;;5089310;28;20032;-78
2022/08/07 07:36:39;;;;;;;9.05;5.88;;;;;;;;;;5113286;27;20116;-79
2022/08/07 07:39:05;;;;;;;14.10;6.82;;;;;;;;;;5086996;28;20027;-79
2022/08/07 07:41:35;;;;;;;12.23;6.10;;;;;;;;;;5090829;28;20467;-78
2022/08/07 07:44:01;;;;;;;7.85;6.30;;;;;;;;;;5089552;28;20088;-78
2022/08/07 07:46:32;;;;;;;7.85;6.32;;;;;;;;;;5121533;27;20019;-77
2022/08/07 07:48:59;;;;;;;11.45;6.78;;;;;;;;;;5092144;28;20023;-79
2022/08/07 07:51:26;;;;;;;7.78;5.95;;;;;;;;;;5093715;28;20029;-77
2022/08/07 07:53:52;;;;;;;8.55;7.63;;;;;;;;;;5088187;28;20032;-77
2022/08/07 07:56:19;;;;;;;8.90;7.25;;;;;;;;;;5091165;28;20050;-78
2022/08/07 07:58:45;;;;;;;10.00;9.00;;;;;;;;;;5122579;27;20035;-77
2022/08/07 08:01:13;;;;;;;8.38;6.47;;;;;;;;;;5086529;28;20533;-79
2022/08/07 08:03:40;;;;;;;10.07;6.72;;;;;;;;;;5091364;28;20062;-77
2022/08/07 08:06:07;;;;;;;8.05;6.25;;;;;;;;;;5117793;27;20020;-78
2022/08/07 08:08:34;;;;;;;8.35;7.32;;;;;;;;;;5091377;28;20020;-78
2022/08/07 08:11:00;;;;;;;7.97;7.13;;;;;;;;;;5088737;28;20055;-78
2022/08/07 08:13:27;;;;;;;11.95;6.85;;;;;;;;;;5090898;28;20058;-78
2022/08/07 08:15:54;;;;;;;10.95;7.90;;;;;;;;;;5117722;27;20016;-78
2022/08/07 08:18:22;;;;;;;8.98;7.00;;;;;;;;;;5114653;27;20471;-77
2022/08/07 08:20:49;;;;;;;14.60;7.28;;;;;;;;;;5117381;27;20044;-79
2022/08/07 08:28:49;;;;;;;9.68;6.38;;;;;;;;;;5086414;28;20094;-78
2022/08/07 08:31:22;;;;;;;9.68;6.00;;;;;;;;;;5091686;28;20016;-78
2022/08/07 08:33:50;;;;;;;9.52;7.22;;;;;;;;;;5089117;28;20032;-78
2022/08/07 08:36:18;;;;;;;10.65;5.78;;;;;;;;;;5090387;28;20131;-77
2022/08/07 08:38:45;;;;;;;13.10;7.07;;;;;;;;;;5114352;27;20020;-78
2022/08/07 08:41:30;;;;;;;12.13;6.88;;;;;;;;;;5091465;28;20052;-79
2022/08/07 08:43:56;;;;;;;11.32;7.60;;;;;;;;;;5125790;27;20031;-78
2022/08/07 08:46:32;;;;;;;13.43;7.63;;;;;;;;;;5116295;27;20025;-78
2022/08/07 08:49:06;;;;;;;12.93;8.32;;;;;;;;;;5089095;28;20020;-81
2022/08/07 08:51:39;;;;;;;16.63;13.48;;;;;;;;;;5088800;28;20073;-79
2022/08/07 08:54:17;;;;;;;14.30;7.63;;;;;;;;;;5116568;27;20043;-78
2022/08/07 08:56:44;;;;;;;11.00;6.95;;;;;;;;;;5101538;27;20322;-79
2022/08/07 08:59:10;;;;;;;9.23;6.68;;;;;;;;;;5122072;27;20016;-78
2022/08/07 09:01:55;;;;;;;8.57;7.13;;;;;;;;;;5109455;27;20012;-80
2022/08/07 09:04:36;;;;;;;8.88;6.95;;;;;;;;;;5089819;28;20020;-79
2022/08/07 09:07:11;;;;;;;8.25;7.45;;;;;;;;;;5091358;28;20020;-76
2022/08/07 09:09:43;;;;;;;16.13;7.72;;;;;;;;;;5087615;28;20039;-77
2022/08/07 09:12:28;;;;;;;10.15;7.70;;;;;;;;;;5091453;28;20027;-78
2022/08/07 09:15:03;;;;;;;14.40;8.15;;;;;;;;;;5082330;28;20036;-78
2022/08/07 09:17:35;;;;;;;9.57;7.00;;;;;;;;;;5090111;28;20747;-78
2022/08/07 09:20:11;;;;;;;10.68;7.05;;;;;;;;;;5118923;27;20388;-77
2022/08/07 09:22:37;;;;;;;10.00;7.60;;;;;;;;;;5089163;28;20063;-78
2022/08/07 09:25:04;;;;;;;11.15;8.48;;;;;;;;;;5082736;28;20043;-78
2022/08/07 09:27:34;;;;;;;13.25;7.80;;;;;;;;;;5086747;28;20024;-77
2022/08/07 09:30:03;;;;;;;12.70;8.63;;;;;;;;;;5090497;28;20019;-77
2022/08/07 09:32:32;;;;;;;11.45;8.00;;;;;;;;;;5076762;28;20035;-77
2022/08/07 09:35:06;;;;;;;10.07;8.07;;;;;;;;;;5089372;28;20123;-77
2022/08/07 09:37:39;;;;;;;12.05;7.93;;;;;;;;;;5089031;28;20027;-78
2022/08/07 09:40:05;;;;;;;9.98;8.40;;;;;;;;;;5083030;28;20581;-78
2022/08/07 09:42:47;;;;;;;11.48;7.72;;;;;;;;;;5106892;27;20025;-77
2022/08/07 09:45:28;;;;;;;18.50;10.23;;;;;;;;;;5089403;28;20105;-77
2022/08/07 09:48:07;;;;;;;12.07;9.25;;;;;;;;;;5091239;28;20252;-77
2022/08/07 09:50:48;;;;;;;12.10;7.82;;;;;;;;;;5114556;27;20074;-76
2022/08/07 09:53:15;;;;;;;9.23;7.85;;;;;;;;;;5087985;28;20024;-78
2022/08/07 09:55:44;;;;;;;15.30;8.80;;;;;;;;;;5080225;28;20031;-76
2022/08/07 09:58:29;;;;;;;14.13;8.82;;;;;;;;;;5084908;28;20066;-79
2022/08/07 10:01:11;;;;;;;10.45;7.82;;;;;;;;;;5088672;28;20017;-78
2022/08/07 10:03:48;;;;;;;10.27;7.63;;;;;;;;;;5087964;28;20145;-78
2022/08/07 10:06:20;;;;;;;12.50;10.35;;;;;;;;;;5088132;28;20034;-77
2022/08/07 10:09:07;;;;;;;19.92;9.95;;;;;;;;;;5081933;28;20039;-76
2022/08/07 10:11:54;;;;;;;11.00;9.63;;;;;;;;;;5115116;27;20028;-78
2022/08/07 10:14:38;;;;;;;16.63;8.50;;;;;;;;;;5074784;28;20044;-79
2022/08/07 10:17:16;;;;;;;12.95;10.85;;;;;;;;;;5081327;28;20034;-78
2022/08/07 10:19:54;;;;;;;11.15;9.98;;;;;;;;;;5091455;28;20025;-79
2022/08/07 10:22:32;;;;;;;11.07;9.13;;;;;;;;;;5124076;27;20551;-77
2022/08/07 10:25:14;;;;;;;12.15;10.35;;;;;;;;;;5075979;28;20475;-76
2022/08/07 10:27:45;;;;;;;14.13;9.15;;;;;;;;;;5110609;27;20029;-78
2022/08/07 10:30:14;;;;;;;11.35;9.00;;;;;;;;;;5083960;28;20111;-78
2022/08/07 10:33:07;;;;;;;16.60;8.45;;;;;;;;;;5084590;28;20075;-78
2022/08/07 10:35:33;;;;;;;11.80;8.48;;;;;;;;;;5112528;27;20032;-78
2022/08/07 10:38:06;;;;;;;11.20;7.63;;;;;;;;;;5088528;28;20056;-78
2022/08/07 10:40:42;;;;;;;11.27;7.78;;;;;;;;;;5117912;28;20468;-77
2022/08/07 10:43:26;;;;;;;9.90;7.35;;;;;;;;;;5087410;28;20475;-78
2022/08/07 10:45:57;;;;;;;9.98;8.57;;;;;;;;;;5089287;28;20032;-77
2022/08/07 10:48:50;;;;;;;9.32;7.35;;;;;;;;;;5082258;28;20024;-78
2022/08/07 10:51:25;;;;;;;12.85;8.15;;;;;;;;;;5100102;28;20032;-76
2022/08/07 10:53:57;;;;;;;10.63;8.00;;;;;;;;;;5088137;28;20039;-77
2022/08/07 10:56:32;;;;;;;11.40;7.57;;;;;;;;;;5086649;28;20020;-77
2022/08/07 10:59:17;;;;;;;12.00;7.57;;;;;;;;;;5088335;28;20024;-78
2022/08/07 11:01:55;;;;;;;10.00;8.45;;;;;;;;;;5088189;28;20038;-78
2022/08/07 11:04:42;;;;;;;11.45;8.75;;;;;;;;;;5081852;28;20042;-79
2022/08/07 11:07:20;;;;;;;10.07;6.57;;;;;;;;;;5077846;28;20515;-78
2022/08/07 11:09:49;;;;;;;13.75;6.90;;;;;;;;;;5086927;28;20021;-77
2022/08/07 11:12:21;;;;;;;9.32;6.65;;;;;;;;;;5090526;28;20020;-77
2022/08/07 11:14:59;;;;;;;8.30;6.70;;;;;;;;;;5090754;28;20467;-78
2022/08/07 11:17:45;;;;;;;10.45;6.55;;;;;;;;;;5120347;28;20103;-79
2022/08/07 11:20:17;;;;;;;14.15;7.93;;;;;;;;;;5108439;28;20049;-77
2022/08/07 11:22:52;;;;;;;9.00;7.68;;;;;;;;;;5091353;28;20091;-78
2022/08/07 11:25:24;;;;;;;13.60;8.00;;;;;;;;;;5094317;28;20115;-77
2022/08/07 11:27:53;;;;;;;13.70;9.47;;;;;;;;;;5093657;28;20048;-76
2022/08/07 11:30:23;;;;;;;17.55;8.15;;;;;;;;;;5083112;28;20083;-78
2022/08/07 11:32:52;;;;;;;15.50;6.80;;;;;;;;;;5094156;28;20039;-77
2022/08/07 11:35:21;;;;;;;11.07;9.63;;;;;;;;;;5093927;28;20020;-78
2022/08/07 11:38:06;;;;;;;8.13;7.25;;;;;;;;;;5118447;27;20463;-77
2022/08/07 11:40:52;;;;;;;12.32;7.80;;;;;;;;;;5092129;28;20013;-78
2022/08/07 11:43:24;;;;;;;9.18;7.60;;;;;;;;;;5090393;28;20024;-77
2022/08/07 11:45:53;;;;;;;11.90;7.95;;;;;;;;;;5094191;28;20031;-78
2022/08/07 11:48:39;;;;;;;11.60;7.47;;;;;;;;;;5092528;28;20020;-78
2022/08/07 11:51:13;;;;;;;9.13;5.90;;;;;;;;;;5088813;28;20052;-78
2022/08/07 11:53:48;;;;;;;11.20;6.55;;;;;;;;;;5126338;27;20081;-77
2022/08/07 11:56:17;;;;;;;10.38;7.03;;;;;;;;;;5093090;28;20085;-79
2022/08/07 11:59:02;;;;;;;13.18;5.80;;;;;;;;;;5091028;28;20020;-79
2022/08/07 12:01:31;;;;;;;12.35;6.93;;;;;;;;;;5086308;28;20075;-78
2022/08/07 12:04:03;;;;;;;8.15;7.30;;;;;;;;;;5089639;28;20491;-77
2022/08/07 12:06:36;;;;;;;13.13;7.05;;;;;;;;;;5088138;28;20510;-77
2022/08/07 12:09:08;;;;;;;9.90;8.15;;;;;;;;;;5091800;28;20119;-79
2022/08/07 12:11:41;;;;;;;7.25;6.18;;;;;;;;;;5092238;28;20036;-79
2022/08/07 12:14:10;;;;;;;8.18;6.22;;;;;;;;;;5092069;28;20031;-76
2022/08/07 12:16:48;;;;;;;10.25;9.18;;;;;;;;;;5092282;28;20477;-78
2022/08/07 12:19:15;;;;;;;13.63;7.35;;;;;;;;;;5092520;28;20024;-77
2022/08/07 12:21:48;;;;;;;13.50;6.68;;;;;;;;;;5121762;27;20495;-78
2022/08/07 12:24:20;;;;;;;11.07;7.30;;;;;;;;;;5092435;28;20481;-77
2022/08/07 12:27:05;;;;;;;9.65;7.32;;;;;;;;;;5092566;28;20031;-76
2022/08/07 12:29:53;;;;;;;8.43;7.13;;;;;;;;;;5092393;28;20024;-78
2022/08/07 12:32:22;;;;;;;8.98;6.70;;;;;;;;;;5079068;28;20487;-77
2022/08/07 12:34:49;;;;;;;11.27;7.47;;;;;;;;;;5091622;28;20058;-79
2022/08/07 12:37:16;;;;;;;8.23;6.13;;;;;;;;;;5088263;28;20433;-77
2022/08/07 12:39:45;;;;;;;11.90;6.68;;;;;;;;;;5085320;28;20025;-78
2022/08/07 12:42:11;;;;;;;14.23;7.93;;;;;;;;;;5087436;28;20024;-79
2022/08/07 12:44:39;;;;;;;6.57;5.88;;;;;;;;;;5110798;27;20420;-78
2022/08/07 12:47:17;;;;;;;7.68;6.20;;;;;;;;;;5124533;27;20112;-77
2022/08/07 12:49:49;;;;;;;9.00;6.57;;;;;;;;;;5092290;28;20020;-79
2022/08/07 12:52:16;;;;;;;8.18;4.88;;;;;;;;;;5091382;28;20081;-79
2022/08/07 12:54:55;;;;;;;9.57;6.35;;;;;;;;;;5091313;28;20390;-77
2022/08/07 12:57:23;;;;;;;8.75;5.88;;;;;;;;;;5088738;28;20028;-76
2022/08/07 12:59:50;;;;;;;8.23;5.20;;;;;;;;;;5087821;28;20391;-77
2022/08/07 13:02:20;;;;;;;8.45;5.07;;;;;;;;;;5123272;27;20020;-78
2022/08/07 13:05:05;;;;;;;5.43;4.55;;;;;;;;;;5091295;28;20450;-76
2022/08/07 13:07:37;;;;;;;6.55;4.63;;;;;;;;;;5086084;28;20081;-78
2022/08/07 13:10:03;;;;;;;6.13;5.30;;;;;;;;;;5091323;28;20031;-75
2022/08/07 13:12:35;;;;;;;11.82;6.00;;;;;;;;;;5120832;27;20119;-77
2022/08/07 13:15:01;;;;;;;;;;;;;;;;;;5091553;28;20020;-79
2022/08/07 13:17:33;;;;;;;19.00;8.60;;;;;;;;;;5122260;27;19919;-76
2022/08/07 13:19:59;;;;;;;8.90;4.70;;;;;;;;;;5118482;27;20414;-76
2022/08/07 13:22:45;;;;;;;5.85;5.15;;;;;;;;;;5086438;28;20249;-77
2022/08/07 13:25:38;;;;;;;8.63;4.85;;;;;;;;;;5117134;27;20020;-76
2022/08/07 13:28:15;;;;;;;7.30;4.50;;;845.20;665.60;;;;;;5085752;27;20043;-77
2022/08/07 13:30:55;;;;;;;7.28;4.90;;;845.20;665.60;;;;;;5088635;28;20078;-78
2022/08/07 13:33:43;;;;;;;9.38;6.65;;;871.20;563.20;;;;;;5078049;28;20393;-79
2022/08/07 13:36:13;;;;;;;8.10;5.35;;;;;;;;;;5088924;28;20031;-78
2022/08/07 13:38:42;;;;;;;8.10;4.78;;;;;;;;;;5091656;28;20039;-76
2022/08/07 13:41:15;;;;;;;8.40;6.50;;;;;;;;;;5091962;28;20036;-77
2022/08/07 13:43:42;;;;;;;6.32;4.68;;;;;;;;;;5086918;28;20836;-75
2022/08/07 13:46:10;;;;;;;5.57;5.07;;;;;;;;;;5090382;28;20012;-75
2022/08/07 13:48:38;;;;;;;5.95;5.35;;;871.10;537.60;;;;;;5091087;28;20039;-75
2022/08/07 13:51:06;;;;;;;6.10;4.53;;;870.90;563.20;;;;;;5085376;28;20090;-74
2022/08/07 13:53:39;;;;;;;5.90;4.70;;;870.70;588.80;;;;;;5088363;28;20043;-77
2022/08/07 13:56:05;;;;;;;4.93;4.43;;;870.40;614.40;;;;;;5088499;28;21154;-77
2022/08/07 14:01:27;;;;;;;6.43;5.35;;;;;;;;;;5089269;28;20039;-76
2022/08/07 14:03:54;;;;;;;7.43;4.97;;;;;;;;;;5089921;28;20027;-77
2022/08/07 14:06:21;;;;;;;8.45;5.05;;;;;;;;;;5088365;28;20654;-75
2022/08/07 14:08:49;;;;;;;7.43;4.15;;;871.30;512.00;;;;;;5102459;27;20020;-77
2022/08/07 14:11:17;;;;;;;6.03;5.15;;;;;;;;;;5088890;28;20149;-78
2022/08/07 14:13:53;;;;;;;5.40;4.80;;;870.90;512.00;;;;;;5088675;28;20833;-78
2022/08/07 14:16:25;;;;;;;7.78;6.25;;;870.90;512.00;;;;;;5082795;28;20086;-76
2022/08/07 14:18:53;;;;;;;5.90;4.70;;;896.10;486.40;;;;;;5088880;28;20471;-76
2022/08/07 14:21:24;;;;;;;6.90;5.32;;;896.60;460.80;;;;;;5092009;28;20051;-77
2022/08/07 14:24:00;;;;;;;11.93;5.20;;;896.50;435.20;;;;;;5123061;27;20028;-78
2022/08/07 14:26:53;;;;;;;5.72;5.10;;;871.30;486.40;;;;;;5103565;28;20492;-78
2022/08/07 14:29:20;;;;;;;7.40;4.60;;;;;;;;;;5083579;28;20024;-78
2022/08/07 14:31:47;;;;;;;6.78;4.72;;;;;;;;;;5083541;28;20044;-77
2022/08/07 14:34:13;;;;;;;9.90;4.10;;;;;;;;;;5085314;28;21217;-77
2022/08/07 14:36:40;;;;;;;5.85;4.60;;;;;;;;;;5087081;28;20031;-77
2022/08/07 14:39:08;;;;;;;10.02;5.40;;;;;;;;;;5083740;28;20794;-77
2022/08/07 14:41:35;;;;;;;7.07;5.55;;;;;;;;;;5080850;28;20021;-80
2022/08/07 14:44:03;;;;;;;11.25;5.05;;;;;;;;;;5081918;28;20074;-77
2022/08/07 14:46:30;;;;;;;7.60;4.80;;;;;;;;;;5088722;28;20020;-76
2022/08/07 14:48:57;;;;;;;7.13;4.28;;;;;;;;;;5088336;28;20066;-79
2022/08/07 14:51:27;;;;;;;8.10;5.30;;;;;;;;;;5108792;28;20078;-79
2022/08/07 14:53:59;;;;;;;6.95;4.63;;;870.70;512.00;;;;;;5083466;28;20032;-78
2022/08/07 14:56:27;;;;;;;6.43;4.28;;;870.70;512.00;;;;;;5089504;28;20359;-78